• Join FlightAware (Why Join?)
  • Login
  • US Flag 
03:21AM EDT


 

Airport Tracker/Info


-or-


 

Live Flight TrackerFlight Track Log ✈ N57HC ✈ 03-Nov-2013 ✈ KPBI - KBED

Flight Track Log - Related Links

Times and Time Zones

All times are in EST time to prevent confusion due to time zone crossing. See the N57HC flight status page for this flight to view local times or setup timezone preferences in your user account.

Time Position Orientation Groundspeed Altitude Reporting Facility
EST Latitude Longitude Course Direction KTS MPH feet Rate Location/Type
02:34PM 26.7394 -80.1250 52° Northeast 214 246 7,700  Level Miami Center
02:35PM 26.7658 -80.0606 65° Northeast 241 277 10,400 2,700 Climbing Miami Center
02:36PM 26.8053 -79.9825 60° Northeast 252 290 13,200 2,340 Climbing Miami Center
02:37PM 26.8422 -79.9136 59° Northeast 260 299 15,100 2,100 Climbing Miami Center
02:38PM 27.1647 -79.8740 69° East  Level Estimated
02:38PM 26.8811 -79.8494 56° Northeast 270 311 17,400  Level Miami Center
02:39PM 27.2610 -79.8295 52° Northeast  Level Estimated
02:39PM 26.9242 -79.7783 56° Northeast 275 316 19,500  Level Miami Center
02:40PM 26.9739 -79.6981 55° Northeast 280 322 21,600 1,680 Climbing Miami Center
02:41PM 27.0192 -79.6197 57° Northeast 287 330 22,900 660 Climbing Miami Center
02:42PM 27.0711 -79.5347 56° Northeast 309 356 23,000  Climbing Miami Center
02:43PM 27.1247 -79.4472 55° Northeast 351 404 23,000 360 Level Miami Center
02:44PM 27.1828 -79.3506 56° Northeast 375 432 23,800 1,380 Climbing Miami Center
02:45PM 27.2431 -79.2514 56° Northeast 356 410 25,800 1,740 Climbing Miami Center
02:46PM 27.2967 -79.1611 56° Northeast 351 404 27,300 1,440 Climbing Miami Center
02:47PM 27.3503 -79.0733 55° Northeast 341 392 28,700 1,200 Climbing Miami Center
02:48PM 27.3994 -78.9925 56° Northeast 341 392 29,800 1,140 Climbing Miami Center
02:49PM 27.4572 -78.8928 57° Northeast 341 392 31,000 1,140 Climbing Miami Center
02:50PM 27.5192 -78.8072 51° Northeast 341 392 32,100 1,140 Climbing Miami Center
02:51PM 27.6072 -78.7714 20° North 329 379 33,300 1,200 Climbing Miami Center
02:52PM 27.6908 -78.7586 North 319 367 34,600 1,140 Climbing Miami Center
02:53PM 27.7850 -78.7461 North 324 373 35,600 1,080 Climbing Miami Center
02:54PM 27.8756 -78.6936 27° Northeast 318 366 36,800 1,020 Climbing Miami Center
02:55PM 27.9389 -78.6383 38° Northeast 323 372 37,700 960 Climbing Miami Center
02:56PM 28.0228 -78.5947 25° Northeast 328 377 38,800 1,080 Climbing Miami Center
02:57PM 28.1086 -78.5750 11° North 316 364 39,900 780 Climbing Miami Center
02:58PM 28.2008 -78.5528 12° North 316 364 40,400 540 Climbing Miami Center
02:59PM 28.2847 -78.5281 15° North 324 373 41,000 300 Climbing Miami Center
03:00PM 28.3808 -78.5036 13° North 330 380 41,000  Level Miami Center
03:01PM 28.4794 -78.4767 14° North 346 398 41,000  Level Miami Center
03:02PM 28.5839 -78.4497 13° North 365 420 41,000  Level Miami Center
03:03PM 28.6928 -78.4206 13° North 375 432 41,000  Level Miami Center
03:04PM 28.8017 -78.3936 12° North 385 443 41,000  Level Miami Center
03:05PM 28.9125 -78.3619 14° North 397 457 41,000  Level Miami Center
03:06PM 29.0194 -78.3325 14° North 397 457 41,000  Level Miami Center
03:07PM 29.1322 -78.3008 14° North 403 464 41,000  Level Miami Center
03:08PM 29.2475 -78.2692 13° North 403 464 41,000  Level Miami Center
03:09PM 29.3625 -78.2394 13° North 416 479 41,000  Level Miami Center
03:10PM 29.4733 -78.2075 14° North 416 479 41,000  Level Miami Center
03:11PM 29.5925 -78.1781 12° North 416 479 41,000  Level Miami Center
03:12PM 29.7033 -78.1458 14° North 416 479 41,000  Level Miami Center
03:13PM 29.8203 -78.1211 10° North 416 479 41,000  Level Miami Center
03:15PM 29.9808 -78.0636 17° North 428 493 41,000  Level Jacksonville Center
03:16PM 30.0944 -78.0317 14° North 427 491 41,000  Level Jacksonville Center
03:17PM 30.2183 -77.9917 16° North 421 484 41,000  Level Jacksonville Center
03:18PM 30.3339 -77.9569 15° North 422 486 41,000  Level Jacksonville Center
03:19PM 30.4514 -77.9244 13° North 426 490 41,000  Level Jacksonville Center
03:20PM 30.5647 -77.8869 16° North 419 482 41,000  Level Jacksonville Center
03:21PM 30.6806 -77.8592 12° North 419 482 41,000  Level Jacksonville Center
03:22PM 30.7964 -77.8339 11° North 419 482 41,000  Level Jacksonville Center
03:23PM 30.9119 -77.7961 16° North 419 482 41,000  Level Jacksonville Center
03:24PM 31.0275 -77.7633 14° North 419 482 41,000  Level Jacksonville Center
03:25PM 31.1431 -77.7350 12° North 419 482 41,000  Level Jacksonville Center
03:26PM 31.2583 -77.6972 16° North 419 482 41,000  Level Jacksonville Center
03:27PM 31.3719 -77.6642 14° North 424 488 41,000  Level Jacksonville Center
03:28PM 31.4875 -77.6356 12° North 424 488 41,000  Level Jacksonville Center
03:29PM 31.6011 -77.6072 12° North 424 488 41,000  Level Jacksonville Center
03:30PM 31.7206 -77.5664 16° North 429 494 41,000  Level Jacksonville Center
03:31PM 31.8383 -77.5350 13° North 429 494 41,000  Level Jacksonville Center
03:32PM 31.9517 -77.5017 14° North 429 494 41,000  Level Jacksonville Center
03:34PM 32.1847 -77.4364 13° North 429 494 41,000  Level Jacksonville Center
03:35PM 32.3003 -77.4047 13° North 429 494 41,000  Level Jacksonville Center
03:36PM 32.4197 -77.3681 15° North 429 494 41,000  Level Jacksonville Center
03:37PM 32.5350 -77.3364 13° North 429 494 41,000  Level Jacksonville Center
03:38PM 32.6525 -77.2997 15° North 429 494 41,000  Level Jacksonville Center
03:39PM 32.7719 -77.2650 14° North 429 494 41,000  Level Jacksonville Center
03:40PM 32.8819 -77.2333 14° North 428 493 41,000  Level Washington Center
03:41PM 32.9992 -77.2011 13° North 449 517 41,000  Level Washington Center
03:42PM 33.1164 -77.1661 14° North 443 510 41,000  Level Washington Center
03:43PM 33.2336 -77.1311 14° North 433 498 41,000  Level Washington Center
03:44PM 33.3489 -77.0958 14° North 433 498 41,000  Level Washington Center
03:45PM 33.4639 -77.0631 13° North 427 491 41,000  Level Washington Center
03:46PM 33.5811 -77.0278 14° North 427 491 41,000  Level Washington Center
03:47PM 33.6983 -76.9922 14° North 427 491 41,000  Level Washington Center
03:48PM 33.8136 -76.9567 14° North 427 491 41,000  Level Washington Center
03:49PM 33.9308 -76.9236 13° North 427 491 41,000  Level Washington Center
03:50PM 34.0458 -76.8878 14° North 427 491 41,000  Level Washington Center
03:51PM 34.1653 -76.8519 14° North 432 497 41,000  Level Washington Center
03:52PM 34.2803 -76.8161 14° North 432 497 41,000  Level Washington Center
03:53PM 34.3953 -76.7825 14° North 432 497 41,000  Level Washington Center
03:54PM 34.5125 -76.7489 13° North 432 497 41,000  Level Washington Center
03:55PM 34.6319 -76.7128 14° North 432 497 41,000  Level Washington Center
03:56PM 34.7386 -76.6789 15° North 432 497 41,000  Level Washington Center
03:57PM 34.8536 -76.6425 15° North 433 498 41,000  Level Washington Center
03:58PM 34.9708 -76.6058 14° North 433 498 41,000  Level Washington Center
03:59PM 35.0900 -76.5719 13° North 433 498 41,000  Level Washington Center
04:00PM 35.2050 -76.5325 16° North 422 486 41,000  Level Washington Center
04:01PM 35.3181 -76.4983 14° North 422 486 41,000  Level Washington Center
04:02PM 35.4456 -76.4564 15° North 422 486 41,000  Level Washington Center
04:03PM 35.5647 -76.4169 15° North 422 486 41,000  Level Washington Center
04:04PM 35.6819 -76.3797 14° North 427 491 41,000  Level Washington Center
04:05PM 35.7969 -76.3450 14° North 427 491 41,000  Level Washington Center
04:06PM 35.9139 -76.3100 14° North 427 491 41,000  Level Washington Center
04:07PM 36.0289 -76.2725 15° North 427 491 41,000  Level Washington Center
04:08PM 36.1417 -76.2350 15° North 427 491 41,000  Level Washington Center
04:09PM 36.2567 -76.2000 14° North 422 486 41,000  Level Washington Center
04:10PM 36.3717 -76.1647 14° North 417 480 41,000  Level Washington Center
04:11PM 36.4844 -76.1292 14° North 411 473 41,000  Level Washington Center
04:12PM 36.5953 -76.0939 14° North 411 473 41,000  Level Washington Center
04:13PM 36.6831 -76.0633 16° North 411 473 41,000  Level Washington Center
04:14PM 36.8125 -76.0200 15° North 418 481 41,000  Level Washington Center
04:15PM 36.9253 -75.9817 15° North 412 474 41,000  Level Washington Center
04:16PM 37.0464 -75.9483 12° North 428 493 41,000  Level Washington Center
04:17PM 37.1592 -75.9125 14° North 428 493 41,000  Level Washington Center
04:18PM 37.2717 -75.8736 15° North 423 487 41,000  Level Washington Center
04:19PM 37.3825 -75.8375 15° North 416 479 41,000  Level Washington Center
04:20PM 37.4953 -75.8011 14° North 411 473 41,000  Level Washington Center
04:21PM 37.6058 -75.7622 16° North 411 473 41,000  Level Washington Center
04:22PM 37.7183 -75.7258 14° North 411 473 41,000  Level Washington Center
04:23PM 37.8247 -75.6892 15° North 411 473 41,000  Level Washington Center
04:24PM 37.9375 -75.6522 14° North 411 473 41,000  Level Washington Center
04:25PM 38.0564 -75.6075 16° North 406 467 41,000  Level Washington Center
04:26PM 38.1669 -75.5706 15° North 401 461 41,000  Level Washington Center
04:27PM 38.2775 -75.5308 16° North 401 461 41,000  Level Washington Center
04:28PM 38.3878 -75.4936 15° North 401 461 41,000  Level Washington Center
04:33PM 38.9510 -75.2300 15° North 100 115 41,000  Level FlightAware
04:34PM 38.9970 -75.1900 34° Northeast 100 115 41,000  Level FlightAware
04:34PM 39.0750 -75.1400 26° Northeast 439 505 41,000  Level FlightAware
04:35PM 39.1130 -75.0900 46° Northeast 433 498 41,000  Level FlightAware
04:35PM 39.1850 -75.0340 31° Northeast 460 529 41,000  Level FlightAware
04:36PM 39.2810 -74.9590 31° Northeast 460 529 41,000  Level FlightAware
04:38PM 39.3900 -74.8750 31° Northeast 460 529 41,000  Level FlightAware
04:38PM 39.4700 -74.7840 41° Northeast 460 529 41,000  Level FlightAware
04:39PM 39.5430 -74.7180 35° Northeast 440 506 41,000 -360 Level FlightAware
04:40PM 39.6140 -74.6640 30° Northeast 463 533 40,600 -660 Descending FlightAware
04:40PM 39.6750 -74.6110 34° Northeast 457 526 40,200 -840 Descending FlightAware
04:41PM 39.7690 -74.5270 34° Northeast 461 531 39,400 -960 Descending FlightAware
04:42PM 39.8360 -74.4720 32° Northeast 443 510 38,800 -1,020 Descending FlightAware
04:42PM 39.8900 -74.4240 34° Northeast 490 564 38,300 -1,020 Descending FlightAware
04:43PM 39.9530 -74.3690 34° Northeast 469 540 37,700 -1,020 Descending FlightAware
04:44PM 40.0370 -74.3190 24° Northeast 438 504 37,000 -1,020 Descending FlightAware
04:44PM 40.1150 -74.3020 North 434 499 36,300 -1,080 Descending FlightAware
04:45PM 40.1920 -74.2850 10° North 411 473 35,600 -1,080 Descending FlightAware
04:45PM 40.2610 -74.2690 10° North 411 473 35,000 -1,140 Descending FlightAware
04:46PM 40.3220 -74.2560 North 430 495 34,400 -1,440 Descending FlightAware
04:47PM 40.4530 -74.2300 North 409 471 32,600 -1,560 Descending FlightAware
04:48PM 40.5180 -74.1920 24° Northeast 430 495 31,700 -1,800 Descending FlightAware
04:48PM 40.5540 -74.1650 30° Northeast 434 499 31,000 -1,680 Descending FlightAware
04:49PM 40.5990 -74.1130 41° Northeast 465 535 30,300 -1,560 Descending FlightAware
04:49PM 40.6260 -74.0470 62° Northeast 477 549 29,600 -1,500 Descending FlightAware
04:50PM 40.6600 -73.9020 73° East 468 539 28,300 -1,560 Descending FlightAware
04:50PM 40.6800 -73.8080 74° East 433 498 27,300 -1,620 Descending FlightAware
04:51PM 40.6930 -73.7460 75° East 435 501 26,700 -720 Descending FlightAware
04:52PM 40.7200 -73.6320 73° East 422 486 26,400 -240 Descending FlightAware
04:52PM 40.7380 -73.5570 72° East 422 486 26,400  Level FlightAware
04:53PM 40.7510 -73.5070 71° East 422 486 26,400  Level FlightAware
04:53PM 40.7690 -73.4340 72° East 422 486 26,400  Level FlightAware
04:54PM 40.7870 -73.3590 72° East 422 486 26,400  Level FlightAware
04:55PM 40.8120 -73.2590 72° East 422 486 26,400 -2,520 Level FlightAware
04:55PM 40.9250 -73.1506 72° East 383 441 22,500 -2,940 Descending Boston Center
04:57PM 41.0189 -73.0406 41° Northeast 380 437 21,300 -1,140 Descending Boston Center
04:58PM 41.0969 -72.9486 42° Northeast 377 434 20,300 -1,020 Descending Boston Center
04:59PM 41.1742 -72.8583 41° Northeast 375 432 19,300 -1,020 Descending Boston Center
05:00PM 41.2547 -72.7611 42° Northeast 372 428 18,200 -1,080 Descending Boston Center
05:01PM 41.3425 -72.6789 35° Northeast 362 417 17,100 -1,140 Descending Boston Center
05:02PM 41.4269 -72.6425 18° North 322 371 15,900 -1,020 Descending Boston Center
05:03PM 41.5133 -72.6033 19° North 326 375 15,100 -660 Descending Boston Center
05:03PM 41.5778 -72.5767 17° North 324 373 14,800 -720 Descending Boston Center
05:04PM 41.6053 -72.5644 18° North 322 371 14,400 -1,260 Descending Boston Center
05:04PM 41.6347 -72.5511 19° North 313 360 13,900 -1,200 Descending Boston Center
05:05PM 41.6800 -72.5092 35° Northeast 317 365 13,200 -1,320 Descending Boston Center
05:05PM 41.7167 -72.4650 42° Northeast 334 384 12,500 -1,440 Descending Boston Center
05:06PM 41.7500 -72.4289 39° Northeast 332 382 11,800 -1,380 Descending Boston Center
05:06PM 41.7858 -72.3886 40° Northeast 322 371 11,100 -840 Descending Boston Center
05:07PM 41.8214 -72.3486 40° Northeast 310 357 11,000 -120 Descending Boston Center
05:07PM 41.8517 -72.3167 38° Northeast 307 353 11,000  Level Boston Center
05:08PM 41.8878 -72.2747 41° Northeast 313 360 11,000  Level Boston Center
05:08PM 41.9292 -72.2286 40° Northeast 323 372 11,000  Level Boston Center
05:09PM 41.9547 -72.1983 41° Northeast 317 365 11,000 -480 Level Boston Center
05:09PM 41.9992 -72.1464 41° Northeast 306 352 10,500 -840 Descending Boston Center
05:10PM 42.0189 -72.1250 39° Northeast 306 352 10,200 -1,020 Descending Boston Center
05:10PM 42.0486 -72.0914 40° Northeast 293 337 9,700 -1,080 Descending Boston Center
05:11PM 42.0878 -72.0456 41° Northeast 304 350 9,100 -1,020 Descending Boston Center
05:11PM 42.1231 -72.0075 39° Northeast 305 351 8,600 -1,020 Descending Boston Center
05:12PM 42.1525 -71.9733 41° Northeast 303 349 8,100 -1,020 Descending Boston Center
05:12PM 42.1908 -71.9358 36° Northeast 280 322 7,500 -1,080 Descending Boston Center
05:13PM 42.2122 -71.9106 41° Northeast 277 319 7,000 -1,320 Descending Boston Center
05:14PM 42.2728 -71.8433 39° Northeast 280 322 5,700 -1,020 Descending Boston Center
05:15PM 42.3286 -71.7803 40° Northeast 247 284 5,000 -360 Descending Boston Center
05:16PM 42.3839 -71.7172 40° Northeast 252 290 5,000 -240 Level Boston Center
05:17PM 42.4306 -71.6472 48° Northeast 250 288 4,600 -900 Descending Boston Center
05:18PM 42.4667 -71.5500 63° Northeast 271 312 3,100 -720 Descending KA90
05:19PM 42.5000 -71.4500 66° East 254 292 3,000 -60 Descending KA90
05:20PM 42.5167 -71.3500 77° East 251 289 3,000 -360 Level KA90
05:21PM 42.5167 -71.2833 90° East 212 244 2,400 -600 Descending KA90
05:22PM 42.5167 -71.2000 90° East 160 184 1,800 -480 Descending KA90
05:23PM 42.4667 -71.2000 180° South 132 152 1,400 -600 Descending KA90
05:24PM 42.4667 -71.2500 270° West 112 129 700 -720 Descending KA90
05:27PM 42.4667 -71.2833 270° West  Level FlightAware Approximate